createdAt,value
2023-05-17T00:00:05.817Z,46.25
2023-05-17T00:01:05.437Z,45.76
2023-05-17T00:02:05.296Z,45.44
2023-05-17T00:03:05.101Z,44.47
2023-05-17T00:04:04.989Z,46.73
2023-05-17T00:05:05.307Z,46.73
2023-05-17T00:06:04.323Z,46.89
2023-05-17T00:07:06.053Z,50.27
2023-05-17T00:08:05.899Z,47.05
2023-05-17T00:09:04.340Z,50.27
2023-05-17T00:10:04.272Z,48.34
2023-05-17T00:11:06.159Z,49.31
2023-05-17T00:12:05.741Z,48.82
2023-05-17T00:13:04.236Z,46.25
2023-05-17T00:14:05.698Z,49.63
2023-05-17T00:15:05.310Z,48.98
2023-05-17T00:16:04.220Z,47.70
2023-05-17T00:17:06.054Z,47.86
2023-05-17T00:18:04.950Z,47.53
2023-05-17T00:19:05.281Z,48.50
2023-05-17T00:20:04.881Z,48.18
2023-05-17T00:21:04.210Z,47.21
2023-05-17T00:22:05.680Z,47.05
2023-05-17T00:23:05.088Z,46.41
2023-05-17T00:24:04.131Z,45.28
2023-05-17T00:25:05.922Z,46.25
2023-05-17T00:26:05.648Z,46.73
2023-05-17T00:27:04.077Z,44.96
2023-05-17T00:28:05.896Z,44.63
2023-05-17T00:29:05.500Z,45.12
2023-05-17T00:30:04.069Z,46.08
2023-05-17T00:31:05.873Z,45.44
2023-05-17T00:32:05.201Z,47.53
2023-05-17T00:33:04.078Z,47.05
2023-05-17T00:34:05.782Z,48.34
2023-05-17T00:35:04.877Z,47.86
2023-05-17T00:36:04.011Z,48.18
2023-05-17T00:37:05.958Z,47.86
2023-05-17T00:38:05.730Z,46.41
2023-05-17T00:39:05.005Z,46.57
2023-05-17T00:40:04.811Z,46.73
2023-05-17T00:41:04.726Z,46.41
2023-05-17T00:42:04.646Z,46.57
2023-05-17T00:43:03.980Z,45.44
2023-05-17T00:44:04.616Z,46.57
2023-05-17T00:45:03.909Z,45.76
2023-05-17T00:46:04.578Z,47.70
2023-05-17T00:47:03.913Z,47.21
2023-05-17T00:48:04.669Z,46.89
2023-05-17T00:49:03.867Z,47.37
2023-05-17T00:50:05.295Z,46.57
2023-05-17T00:51:05.128Z,50.43
2023-05-17T00:52:03.828Z,46.08
2023-05-17T00:53:05.222Z,46.73
2023-05-17T00:54:04.658Z,45.92
2023-05-17T00:55:03.828Z,46.57
2023-05-17T00:56:05.364Z,46.57
2023-05-17T00:57:05.061Z,46.73
2023-05-17T00:58:03.769Z,52.21
2023-05-17T00:59:05.218Z,46.57
2023-05-17T01:00:04.714Z,47.21
2023-05-17T01:01:04.451Z,48.18
2023-05-17T01:02:03.724Z,47.86
2023-05-17T01:03:04.497Z,48.66
2023-05-17T01:04:03.878Z,50.11
2023-05-17T01:05:05.254Z,50.27
2023-05-17T01:06:04.579Z,51.56
2023-05-17T01:07:03.666Z,48.66
2023-05-17T01:08:04.600Z,48.82
2023-05-17T01:09:03.667Z,49.63
2023-05-17T01:10:05.541Z,48.82
2023-05-17T01:11:04.797Z,47.53
2023-05-17T01:12:03.636Z,49.79
2023-05-17T01:13:05.555Z,48.50
2023-05-17T01:14:05.187Z,50.60
2023-05-17T01:15:03.629Z,49.63
2023-05-17T01:16:03.657Z,49.95
2023-05-17T01:17:05.286Z,49.79
2023-05-17T01:18:05.002Z,52.21
2023-05-17T01:19:03.656Z,54.46
2023-05-17T01:20:04.307Z,50.60
2023-05-17T01:21:03.557Z,48.66
2023-05-17T01:22:05.547Z,48.50
2023-05-17T01:23:05.165Z,49.15
2023-05-17T01:24:03.538Z,46.08
2023-05-17T01:25:04.708Z,45.28
2023-05-17T01:26:04.058Z,45.28
2023-05-17T01:27:04.302Z,45.28
2023-05-17T01:28:03.499Z,44.31
2023-05-17T01:29:05.161Z,43.83
2023-05-17T01:30:03.451Z,43.34
2023-05-17T01:31:04.231Z,44.63
2023-05-17T01:32:03.408Z,47.70
2023-05-17T01:33:04.308Z,52.37
2023-05-17T01:34:03.504Z,51.40
2023-05-17T01:35:04.098Z,48.66
2023-05-17T01:36:03.386Z,48.98
2023-05-17T01:37:04.886Z,48.82
2023-05-17T01:38:04.731Z,49.47
2023-05-17T01:39:05.027Z,48.02
2023-05-17T01:40:03.354Z,48.82
2023-05-17T01:41:04.896Z,49.63
2023-05-17T01:42:04.226Z,48.50
2023-05-17T01:43:03.310Z,46.25
2023-05-17T01:44:04.827Z,46.73
2023-05-17T01:45:04.226Z,49.79
2023-05-17T01:46:03.288Z,48.82
2023-05-17T01:47:04.968Z,48.82
2023-05-17T01:48:04.377Z,47.37
2023-05-17T01:49:04.381Z,46.08
2023-05-17T01:50:03.273Z,45.44
2023-05-17T01:51:04.107Z,46.25
2023-05-17T01:52:03.243Z,45.92
2023-05-17T01:53:05.009Z,45.76
2023-05-17T01:54:03.188Z,46.73
2023-05-17T01:55:05.306Z,49.31
2023-05-17T01:56:04.850Z,47.86
2023-05-17T01:57:04.011Z,47.21
2023-05-17T01:58:03.960Z,46.73
2023-05-17T01:59:03.126Z,47.53
2023-05-17T02:00:04.952Z,47.21
2023-05-17T02:01:04.687Z,48.18
2023-05-17T02:02:03.115Z,46.73
2023-05-17T02:03:04.815Z,48.18
2023-05-17T02:04:04.395Z,45.60
2023-05-17T02:05:04.770Z,54.62
2023-05-17T02:06:04.007Z,46.08
2023-05-17T02:07:03.078Z,47.70
2023-05-17T02:08:04.889Z,45.92
2023-05-17T02:09:04.167Z,47.05
2023-05-17T02:10:03.044Z,48.82
2023-05-17T02:11:03.770Z,51.24
2023-05-17T02:12:03.094Z,52.69
2023-05-17T02:13:04.248Z,51.88
2023-05-17T02:14:03.768Z,52.21
2023-05-17T02:15:03.815Z,52.85
2023-05-17T02:16:02.968Z,52.21
2023-05-17T02:17:03.779Z,52.21
2023-05-17T02:18:03.116Z,55.43
2023-05-17T02:19:04.336Z,50.11
2023-05-17T02:20:03.899Z,49.47
2023-05-17T02:21:02.920Z,57.36
2023-05-17T02:22:03.610Z,46.08
2023-05-17T02:23:02.888Z,45.60
2023-05-17T02:24:04.301Z,57.69
2023-05-17T02:25:03.908Z,46.89
2023-05-17T02:26:04.307Z,61.87
2023-05-17T02:27:02.881Z,45.60
2023-05-17T02:28:02.860Z,46.73
2023-05-17T02:29:04.634Z,46.41
2023-05-17T02:30:03.978Z,46.41
2023-05-17T02:31:02.838Z,45.92
2023-05-17T02:32:03.677Z,49.31
2023-05-17T02:33:03.477Z,47.05
2023-05-17T02:34:02.993Z,44.63
2023-05-17T02:35:04.362Z,45.92
2023-05-17T02:36:04.883Z,57.52
2023-05-17T02:37:03.559Z,53.66
2023-05-17T02:38:03.698Z,57.20
2023-05-17T02:39:02.721Z,58.65
2023-05-17T02:40:04.604Z,62.36
2023-05-17T02:41:04.523Z,45.92
2023-05-17T02:42:03.595Z,63.33
2023-05-17T02:43:02.701Z,62.68
2023-05-17T02:44:04.494Z,58.33
2023-05-17T02:45:04.344Z,62.68
2023-05-17T02:46:02.719Z,57.85
2023-05-17T02:47:04.542Z,56.24
2023-05-17T02:48:04.004Z,53.17
2023-05-17T02:49:02.638Z,64.61
2023-05-17T02:50:04.615Z,65.74
2023-05-17T02:51:03.788Z,46.89
2023-05-17T02:52:02.616Z,77.83
2023-05-17T02:53:03.408Z,64.78
2023-05-17T02:54:02.587Z,51.56
2023-05-17T02:55:04.405Z,45.76
2023-05-17T02:56:03.586Z,52.05
2023-05-17T02:57:02.578Z,60.10
2023-05-17T02:58:03.279Z,47.86
2023-05-17T02:59:03.383Z,45.92
2023-05-17T03:00:02.560Z,51.72
2023-05-17T03:01:03.813Z,46.08
2023-05-17T03:02:03.401Z,44.79
2023-05-17T03:03:02.540Z,44.31
2023-05-17T03:04:03.391Z,44.96
2023-05-17T03:05:02.466Z,49.79
2023-05-17T03:06:03.321Z,47.53
2023-05-17T03:07:05.071Z,45.12
2023-05-17T03:08:03.231Z,52.21
2023-05-17T03:09:02.426Z,45.44
2023-05-17T03:10:03.247Z,46.73
2023-05-17T03:11:03.177Z,43.99
2023-05-17T03:12:02.394Z,49.31
2023-05-17T03:13:03.232Z,44.47
2023-05-17T03:14:03.285Z,45.76
2023-05-17T03:15:03.303Z,46.25
2023-05-17T03:16:03.219Z,44.96
2023-05-17T03:17:02.356Z,46.25
2023-05-17T03:18:03.904Z,45.92
2023-05-17T03:19:03.686Z,46.25
2023-05-17T03:20:02.949Z,46.73
2023-05-17T03:21:02.300Z,61.23
2023-05-17T03:22:04.198Z,47.21
2023-05-17T03:23:03.608Z,47.86
2023-05-17T03:24:03.005Z,48.82
2023-05-17T03:25:03.254Z,54.30
2023-05-17T03:26:02.988Z,47.86
2023-05-17T03:27:03.155Z,47.70
2023-05-17T03:28:03.057Z,48.18
2023-05-17T03:29:02.238Z,47.86
2023-05-17T03:30:03.855Z,47.70
2023-05-17T03:31:03.652Z,46.73
2023-05-17T03:32:02.195Z,49.95
2023-05-17T03:33:04.489Z,59.78
2023-05-17T03:34:04.080Z,55.91
2023-05-17T03:35:02.147Z,55.27
2023-05-17T03:36:04.138Z,54.30
2023-05-17T03:37:03.365Z,71.87
2023-05-17T03:38:03.026Z,48.82
2023-05-17T03:39:02.816Z,48.82
2023-05-17T03:40:02.994Z,48.18
2023-05-17T03:41:02.095Z,49.63
2023-05-17T03:42:04.054Z,48.50
2023-05-17T03:43:03.462Z,49.79
2023-05-17T03:44:02.167Z,52.37
2023-05-17T03:45:02.884Z,46.89
2023-05-17T03:46:02.873Z,54.62
2023-05-17T03:47:02.064Z,46.73
2023-05-17T03:48:02.632Z,52.53
2023-05-17T03:49:02.171Z,63.81
2023-05-17T03:50:03.713Z,52.37
2023-05-17T03:51:03.119Z,46.89
2023-05-17T03:52:02.604Z,55.75
2023-05-17T03:53:02.791Z,50.11
2023-05-17T03:54:02.685Z,49.63
2023-05-17T03:55:02.883Z,68.64
2023-05-17T03:56:01.956Z,51.40
2023-05-17T03:57:02.039Z,47.53
2023-05-17T03:58:02.670Z,51.88
2023-05-17T03:59:02.756Z,51.40
2023-05-17T04:00:01.935Z,48.02
2023-05-17T04:01:03.218Z,48.82
2023-05-17T04:02:02.778Z,51.88
2023-05-17T04:03:01.901Z,50.60
2023-05-17T04:04:03.256Z,51.72
2023-05-17T04:05:02.662Z,51.08
2023-05-17T04:06:02.723Z,50.60
2023-05-17T04:07:01.856Z,50.43
2023-05-17T04:08:03.655Z,52.05
2023-05-17T04:09:02.667Z,53.66
2023-05-17T04:10:02.964Z,49.47
2023-05-17T04:11:01.770Z,53.17
2023-05-17T04:12:03.630Z,52.37
2023-05-17T04:13:03.509Z,50.92
2023-05-17T04:14:01.757Z,54.14
2023-05-17T04:15:02.429Z,52.85
2023-05-17T04:16:01.756Z,51.08
2023-05-17T04:17:03.511Z,55.11
2023-05-17T04:18:02.992Z,48.98
2023-05-17T04:19:02.558Z,54.79
2023-05-17T04:20:01.699Z,49.63
2023-05-17T04:21:02.525Z,49.31
2023-05-17T04:22:01.682Z,53.33
2023-05-17T04:23:02.620Z,49.47
2023-05-17T04:24:02.364Z,50.11
2023-05-17T04:25:02.516Z,50.92
2023-05-17T04:26:02.019Z,67.19
2023-05-17T04:27:03.744Z,50.92
2023-05-17T04:28:03.208Z,48.98
2023-05-17T04:29:01.703Z,48.66
2023-05-17T04:30:01.603Z,50.76
2023-05-17T04:31:03.290Z,49.95
2023-05-17T04:32:02.913Z,51.40
2023-05-17T04:33:02.484Z,49.31
2023-05-17T04:34:01.686Z,48.18
2023-05-17T04:35:02.244Z,51.40
2023-05-17T04:36:01.742Z,48.50
2023-05-17T04:37:03.163Z,47.37
2023-05-17T04:38:02.719Z,48.50
2023-05-17T04:39:01.618Z,49.15
2023-05-17T04:40:02.451Z,52.53
2023-05-17T04:41:02.678Z,47.70
2023-05-17T04:42:02.327Z,53.33
2023-05-17T04:43:02.184Z,52.53
2023-05-17T04:44:01.742Z,49.15
2023-05-17T04:45:02.272Z,50.60
2023-05-17T04:46:01.458Z,48.98
2023-05-17T04:47:02.284Z,50.27
2023-05-17T04:48:01.626Z,48.66
2023-05-17T04:49:03.044Z,49.95
2023-05-17T04:50:03.186Z,50.11
2023-05-17T04:51:02.257Z,52.37
2023-05-17T04:52:03.524Z,50.60
2023-05-17T04:53:01.857Z,49.79
2023-05-17T04:54:01.381Z,48.66
2023-05-17T04:55:03.078Z,49.79
2023-05-17T04:56:02.480Z,48.82
2023-05-17T04:57:02.452Z,47.21
2023-05-17T04:58:01.312Z,49.15
2023-05-17T04:59:02.909Z,48.02
2023-05-17T05:00:02.443Z,58.33
2023-05-17T05:01:02.137Z,50.27
2023-05-17T05:02:02.900Z,56.24
2023-05-17T05:03:02.146Z,47.37
2023-05-17T05:04:01.334Z,50.60
2023-05-17T05:05:03.419Z,47.21
2023-05-17T05:06:02.712Z,50.60
2023-05-17T05:07:01.306Z,54.95
2023-05-17T05:08:01.228Z,51.08
2023-05-17T05:09:03.276Z,60.26
2023-05-17T05:10:01.997Z,48.98
2023-05-17T05:11:01.169Z,53.82
2023-05-17T05:12:03.125Z,50.43
2023-05-17T05:13:01.966Z,46.25
2023-05-17T05:14:02.071Z,48.50
2023-05-17T05:15:01.898Z,49.47
2023-05-17T05:16:01.183Z,47.21
2023-05-17T05:17:01.919Z,47.86
2023-05-17T05:18:01.285Z,59.62
2023-05-17T05:19:02.039Z,50.92
2023-05-17T05:20:01.090Z,47.86
2023-05-17T05:21:01.830Z,45.12
2023-05-17T05:22:01.062Z,50.92
2023-05-17T05:23:02.981Z,47.86
2023-05-17T05:24:02.745Z,46.25
2023-05-17T05:25:02.853Z,45.92
2023-05-17T05:26:01.024Z,49.63
2023-05-17T05:27:02.593Z,47.05
2023-05-17T05:28:02.522Z,47.53
2023-05-17T05:29:01.085Z,59.62
2023-05-17T05:30:02.145Z,54.14
2023-05-17T05:31:02.017Z,59.30
2023-05-17T05:32:01.105Z,53.98
2023-05-17T05:33:03.231Z,48.02
2023-05-17T05:34:01.789Z,47.21
2023-05-17T05:35:01.942Z,46.25
2023-05-17T05:36:01.941Z,45.76
2023-05-17T05:37:01.595Z,47.86
2023-05-17T05:38:00.980Z,45.60
2023-05-17T05:39:02.344Z,71.70
2023-05-17T05:40:02.041Z,46.57
2023-05-17T05:41:01.745Z,49.95
2023-05-17T05:42:00.835Z,50.43
2023-05-17T05:43:03.095Z,46.08
2023-05-17T05:44:02.459Z,52.05
2023-05-17T05:45:01.734Z,45.60
2023-05-17T05:46:00.822Z,45.92
2023-05-17T05:47:02.547Z,58.17
2023-05-17T05:48:02.799Z,60.91
2023-05-17T05:49:01.739Z,54.30
2023-05-17T05:50:00.768Z,46.57
2023-05-17T05:51:01.554Z,62.36
2023-05-17T05:52:00.737Z,45.44
2023-05-17T05:53:10.987Z,51.08
2023-05-17T05:54:02.494Z,48.34
2023-05-17T05:55:01.599Z,47.21
2023-05-17T05:56:00.761Z,46.08
2023-05-17T05:57:01.695Z,44.79
2023-05-17T05:58:00.751Z,47.21
2023-05-17T05:59:02.403Z,48.66
2023-05-17T06:00:02.088Z,46.25
2023-05-17T06:01:02.825Z,47.05
2023-05-17T06:02:01.397Z,49.47
2023-05-17T06:03:01.532Z,43.67
2023-05-17T06:04:00.622Z,45.12
2023-05-17T06:05:02.658Z,45.12
2023-05-17T06:06:02.245Z,48.02
2023-05-17T06:07:00.695Z,44.47
2023-05-17T06:08:02.165Z,43.18
2023-05-17T06:09:01.598Z,49.47
2023-05-17T06:10:00.588Z,48.98
2023-05-17T06:11:01.200Z,48.18
2023-05-17T06:12:00.640Z,46.57
2023-05-17T06:13:01.804Z,46.89
2023-05-17T06:14:01.042Z,43.67
2023-05-17T06:15:00.517Z,45.12
2023-05-17T06:16:02.379Z,44.15
2023-05-17T06:17:01.955Z,49.95
2023-05-17T06:18:00.707Z,58.81
2023-05-17T06:19:01.906Z,46.41
2023-05-17T06:20:01.690Z,46.57
2023-05-17T06:21:00.442Z,47.05
2023-05-17T06:22:02.387Z,43.99
2023-05-17T06:23:02.273Z,46.25
2023-05-17T06:24:01.435Z,49.47
2023-05-17T06:25:00.420Z,46.41
2023-05-17T06:26:02.015Z,48.18
2023-05-17T06:27:00.400Z,44.79
2023-05-17T06:28:00.368Z,46.41
2023-05-17T06:29:00.430Z,47.86
2023-05-17T06:30:01.781Z,53.01
2023-05-17T06:31:01.200Z,47.70
2023-05-17T06:32:00.543Z,47.53
2023-05-17T06:33:02.217Z,46.89
2023-05-17T06:34:01.184Z,46.08
2023-05-17T06:35:01.215Z,52.37
2023-05-17T06:37:01.118Z,49.95
2023-05-17T06:38:00.297Z,44.63
2023-05-17T06:39:02.167Z,44.15
2023-05-17T06:40:10.277Z,44.31
2023-05-17T06:41:00.958Z,53.33
2023-05-17T06:42:00.243Z,48.50
2023-05-17T06:43:00.879Z,48.82
2023-05-17T06:44:00.233Z,58.33
2023-05-17T06:45:02.441Z,44.15
2023-05-17T06:46:01.908Z,45.76
2023-05-17T06:47:00.166Z,47.86
2023-05-17T06:48:02.128Z,45.12
2023-05-17T06:49:02.013Z,43.51
2023-05-17T06:50:00.183Z,45.60
2023-05-17T06:51:02.197Z,43.02
2023-05-17T06:52:01.074Z,51.08
2023-05-17T06:53:00.162Z,42.70
2023-05-17T06:54:01.565Z,44.63
2023-05-17T06:55:00.409Z,44.15
2023-05-17T06:56:02.117Z,45.28
2023-05-17T06:57:01.846Z,52.85
2023-05-17T06:58:00.790Z,46.89
2023-05-17T06:59:00.892Z,45.28
2023-05-17T07:00:00.230Z,44.79
2023-05-17T07:01:00.887Z,44.63
2023-05-17T07:02:00.571Z,46.41
2023-05-17T07:03:01.637Z,45.44
2023-05-17T07:04:01.071Z,45.12
2023-05-17T07:05:00.056Z,54.30
2023-05-17T07:06:01.522Z,53.98
2023-05-17T07:07:01.422Z,52.85
2023-05-17T07:08:00.765Z,45.76
2023-05-17T07:09:00.019Z,56.88
2023-05-17T07:10:01.582Z,46.25
2023-05-17T07:11:01.407Z,43.02
2023-05-17T07:11:59.913Z,43.18
2023-05-17T07:13:00.658Z,48.50
2023-05-17T07:13:59.923Z,43.51
2023-05-17T07:15:00.634Z,58.81
2023-05-17T07:15:59.917Z,48.98
2023-05-17T07:17:02.013Z,64.29
2023-05-17T07:18:01.826Z,47.21
2023-05-17T07:19:02.598Z,51.24
2023-05-17T07:20:02.682Z,46.57
2023-05-17T07:21:00.604Z,53.33
2023-05-17T07:21:59.863Z,43.34
2023-05-17T07:23:01.217Z,46.73
2023-05-17T07:24:01.138Z,51.88
2023-05-17T07:24:59.797Z,49.63
2023-05-17T07:26:00.434Z,46.08
2023-05-17T07:26:59.768Z,51.88
2023-05-17T07:28:00.356Z,46.25
2023-05-17T07:29:00.596Z,47.05
2023-05-17T07:29:59.755Z,43.34
2023-05-17T07:31:01.651Z,45.12
2023-05-17T07:32:00.381Z,61.39
2023-05-17T07:33:00.595Z,44.15
2023-05-17T07:34:00.411Z,43.99
2023-05-17T07:35:00.492Z,48.66
2023-05-17T07:36:00.395Z,43.67
2023-05-17T07:36:59.675Z,56.72
2023-05-17T07:38:00.407Z,43.83
2023-05-17T07:39:00.476Z,48.50
2023-05-17T07:40:00.416Z,46.57
2023-05-17T07:41:00.310Z,52.21
2023-05-17T07:42:00.388Z,45.76
2023-05-17T07:43:00.327Z,53.01
2023-05-17T07:43:59.607Z,49.47
2023-05-17T07:45:00.343Z,49.95
2023-05-17T07:46:00.357Z,52.21
2023-05-17T07:47:00.417Z,53.17
2023-05-17T07:48:00.443Z,45.28
2023-05-17T07:49:00.317Z,44.31
2023-05-17T07:50:00.382Z,45.60
2023-05-17T07:51:00.206Z,50.27
2023-05-17T07:52:00.500Z,45.12
2023-05-17T07:53:00.222Z,48.18
2023-05-17T07:54:00.337Z,46.41
2023-05-17T07:54:59.496Z,45.44
2023-05-17T07:56:01.404Z,47.05
2023-05-17T07:57:00.228Z,47.70
2023-05-17T07:57:59.464Z,44.96
2023-05-17T07:59:00.247Z,48.18
2023-05-17T07:59:59.449Z,47.05
2023-05-17T08:01:01.078Z,52.69
2023-05-17T08:02:00.176Z,49.95
2023-05-17T08:03:00.425Z,47.37
2023-05-17T08:04:00.304Z,51.88
2023-05-17T08:04:59.422Z,50.43
2023-05-17T08:06:00.757Z,53.82
2023-05-17T08:07:00.318Z,43.18
2023-05-17T08:08:00.058Z,48.18
2023-05-17T08:09:00.097Z,43.18
2023-05-17T08:10:00.115Z,47.53
2023-05-17T08:11:00.473Z,45.12
2023-05-17T08:11:59.317Z,43.67
2023-05-17T08:13:00.205Z,54.62
2023-05-17T08:14:00.200Z,55.75
2023-05-17T08:14:59.877Z,48.02
2023-05-17T08:16:08.885Z,45.12
2023-05-17T08:16:59.956Z,44.63
2023-05-17T08:18:00.912Z,45.28
2023-05-17T08:18:59.412Z,45.12
2023-05-17T08:20:00.170Z,45.44
2023-05-17T08:20:59.242Z,49.15
2023-05-17T08:22:00.055Z,48.98
2023-05-17T08:22:59.220Z,54.62
2023-05-17T08:24:03.321Z,58.49
2023-05-17T08:25:00.895Z,59.94
2023-05-17T08:25:59.176Z,61.55
2023-05-17T08:26:59.865Z,64.94
2023-05-17T08:27:59.786Z,69.77
2023-05-17T08:28:59.908Z,79.12
2023-05-17T08:29:59.114Z,76.86
2023-05-17T08:30:59.870Z,61.71
2023-05-17T08:31:59.754Z,61.39
2023-05-17T08:33:00.002Z,66.71
2023-05-17T08:33:59.831Z,53.01
2023-05-17T08:35:00.194Z,62.20
2023-05-17T08:35:59.834Z,68.80
2023-05-17T08:37:00.232Z,45.92
2023-05-17T08:38:00.115Z,48.02
2023-05-17T08:38:59.833Z,43.99
2023-05-17T08:39:59.821Z,45.44
2023-05-17T08:40:59.953Z,63.16
2023-05-17T08:42:01.250Z,65.26
2023-05-17T08:42:59.900Z,71.22
2023-05-17T08:44:00.033Z,53.82
2023-05-17T08:44:59.850Z,47.86
2023-05-17T08:46:00.610Z,72.67
2023-05-17T08:46:59.205Z,48.02
2023-05-17T08:47:59.817Z,45.76
2023-05-17T08:48:59.657Z,49.95
2023-05-17T08:49:59.186Z,46.89
2023-05-17T08:50:59.933Z,45.44
2023-05-17T08:51:59.721Z,73.15
2023-05-17T08:52:59.647Z,47.21
2023-05-17T08:53:59.689Z,46.08
2023-05-17T08:54:59.963Z,44.79
2023-05-17T08:55:59.106Z,44.63
2023-05-17T08:57:00.911Z,46.89
2023-05-17T08:58:00.142Z,47.86
2023-05-17T08:59:00.042Z,48.02
2023-05-17T08:59:59.795Z,46.25
2023-05-17T09:01:00.027Z,71.54
2023-05-17T09:01:59.769Z,46.57
2023-05-17T09:02:59.174Z,45.60
2023-05-17T09:04:00.614Z,43.34
2023-05-17T09:05:00.351Z,45.12
2023-05-17T09:05:59.540Z,46.73
2023-05-17T09:06:59.130Z,54.30
2023-05-17T09:07:59.658Z,53.33
2023-05-17T09:08:59.840Z,55.43
2023-05-17T09:09:59.436Z,50.27
2023-05-17T09:10:58.727Z,46.57
2023-05-17T09:12:00.180Z,48.50
2023-05-17T09:12:59.899Z,44.47
2023-05-17T09:13:59.488Z,43.99
2023-05-17T09:14:59.330Z,47.70
2023-05-17T09:15:58.666Z,48.98
2023-05-17T09:16:59.253Z,50.11
2023-05-17T09:17:59.595Z,53.17
2023-05-17T09:18:59.640Z,51.24
2023-05-17T09:19:59.893Z,43.51
2023-05-17T09:20:59.287Z,48.34
2023-05-17T09:21:58.646Z,56.07
2023-05-17T09:22:59.279Z,53.66
2023-05-17T09:24:06.394Z,46.57
2023-05-17T09:25:00.059Z,57.36
2023-05-17T09:25:58.922Z,44.79
2023-05-17T09:27:00.008Z,45.76
2023-05-17T09:27:59.510Z,49.15
2023-05-17T09:28:59.294Z,59.78
2023-05-17T09:29:58.509Z,71.22
2023-05-17T09:30:59.230Z,74.60
2023-05-17T09:31:59.096Z,73.32
2023-05-17T09:32:59.411Z,68.16
2023-05-17T09:33:58.672Z,64.61
2023-05-17T09:34:59.297Z,64.61
2023-05-17T09:35:58.462Z,63.49
2023-05-17T09:37:00.114Z,61.87
2023-05-17T09:37:59.127Z,64.29
2023-05-17T09:38:58.446Z,65.58
2023-05-17T09:40:00.172Z,65.58
2023-05-17T09:41:00.067Z,63.97
2023-05-17T09:41:59.144Z,62.68
2023-05-17T09:42:58.370Z,62.36
2023-05-17T09:43:59.147Z,62.04
2023-05-17T09:44:59.032Z,61.23
2023-05-17T09:45:59.222Z,72.51
2023-05-17T09:46:58.330Z,66.71
2023-05-17T09:47:59.205Z,67.51
2023-05-17T09:48:59.053Z,64.78
2023-05-17T09:49:59.312Z,66.71
2023-05-17T09:50:58.962Z,62.20
2023-05-17T09:51:58.309Z,61.87
2023-05-17T09:52:58.925Z,66.06
2023-05-17T09:53:58.252Z,59.30
2023-05-17T09:54:59.635Z,59.78
2023-05-17T09:55:59.239Z,64.45
2023-05-17T09:56:58.233Z,57.69
2023-05-17T09:57:59.934Z,65.58
2023-05-17T09:58:59.282Z,68.80
2023-05-17T09:59:58.361Z,67.68
2023-05-17T10:00:59.824Z,63.65
2023-05-17T10:01:59.572Z,63.65
2023-05-17T10:02:58.498Z,63.65
2023-05-17T10:04:00.243Z,65.74
2023-05-17T10:04:59.726Z,66.87
2023-05-17T10:05:58.834Z,57.85
2023-05-17T10:06:58.974Z,60.10
2023-05-17T10:07:58.122Z,59.94
2023-05-17T10:08:59.343Z,60.10
2023-05-17T10:09:58.904Z,64.13
2023-05-17T10:10:58.085Z,62.84
2023-05-17T10:11:59.803Z,62.20
2023-05-17T10:12:59.873Z,63.33
2023-05-17T10:13:58.964Z,64.78
2023-05-17T10:14:58.149Z,62.84
2023-05-17T10:15:59.607Z,63.81
2023-05-17T10:16:59.084Z,63.00
2023-05-17T10:17:58.922Z,60.59
2023-05-17T10:18:58.140Z,61.87
2023-05-17T10:19:59.835Z,63.16
2023-05-17T10:20:59.725Z,60.91
2023-05-17T10:22:10.993Z,61.71
2023-05-17T10:22:59.004Z,59.94
2023-05-17T10:23:58.983Z,60.75
2023-05-17T10:24:57.964Z,71.06
2023-05-17T10:25:58.785Z,62.36
2023-05-17T10:26:58.626Z,64.61
2023-05-17T10:27:57.902Z,66.55
2023-05-17T10:28:58.644Z,64.29
2023-05-17T10:29:58.725Z,62.20
2023-05-17T10:30:58.784Z,64.29
2023-05-17T10:31:57.875Z,62.20
2023-05-17T10:32:59.680Z,71.70
2023-05-17T10:33:58.591Z,66.55
2023-05-17T10:35:10.537Z,59.78
2023-05-17T10:35:59.299Z,66.23
2023-05-17T10:36:58.774Z,65.90
2023-05-17T10:37:58.526Z,61.39
2023-05-17T10:38:58.849Z,72.19
2023-05-17T10:39:58.576Z,61.23
2023-05-17T10:40:57.780Z,60.91
2023-05-17T10:42:13.446Z,57.69
2023-05-17T10:42:59.341Z,59.94
2023-05-17T10:43:58.487Z,69.45
2023-05-17T10:44:58.623Z,66.87
2023-05-17T10:45:58.500Z,60.10
2023-05-17T10:46:57.704Z,68.64
2023-05-17T10:48:01.088Z,64.45
2023-05-17T10:48:59.285Z,61.87
2023-05-17T10:49:58.580Z,66.87
2023-05-17T10:51:01.920Z,61.39
2023-05-17T10:51:57.667Z,63.49
2023-05-17T10:52:57.662Z,65.42
2023-05-17T10:53:58.450Z,64.29
2023-05-17T10:54:58.323Z,63.65
2023-05-17T10:55:58.453Z,64.13
2023-05-17T10:56:57.666Z,58.01
2023-05-17T10:57:58.792Z,64.61
2023-05-17T10:58:58.336Z,67.51
2023-05-17T10:59:57.612Z,71.38
2023-05-17T11:00:59.139Z,61.39
2023-05-17T11:01:58.850Z,65.74
2023-05-17T11:02:57.585Z,62.36
2023-05-17T11:03:58.263Z,67.35
2023-05-17T11:04:58.405Z,61.55
2023-05-17T11:05:58.234Z,62.68
2023-05-17T11:06:57.500Z,64.45
2023-05-17T11:07:58.807Z,61.71
2023-05-17T11:08:58.331Z,61.07
2023-05-17T11:09:57.481Z,64.78
2023-05-17T11:10:58.293Z,63.33
2023-05-17T11:11:58.401Z,63.16
2023-05-17T11:12:57.457Z,61.87
2023-05-17T11:13:58.241Z,65.90
2023-05-17T11:14:58.263Z,63.65
2023-05-17T11:15:58.147Z,60.26
2023-05-17T11:16:58.338Z,62.20
2023-05-17T11:17:58.820Z,78.15
2023-05-17T11:18:58.237Z,66.71
2023-05-17T11:19:58.573Z,63.65
2023-05-17T11:20:57.415Z,63.49
2023-05-17T11:21:58.943Z,67.84
2023-05-17T11:22:58.605Z,63.65
2023-05-17T11:23:58.821Z,67.19
2023-05-17T11:24:58.021Z,64.61
2023-05-17T11:26:05.679Z,65.42
2023-05-17T11:26:58.079Z,66.71
2023-05-17T11:27:57.310Z,65.74
2023-05-17T11:28:57.972Z,64.29
2023-05-17T11:29:57.271Z,63.49
2023-05-17T11:30:59.131Z,66.71
2023-05-17T11:31:58.107Z,61.71
2023-05-17T11:32:58.114Z,65.90
2023-05-17T11:33:57.272Z,65.10
2023-05-17T11:34:58.011Z,45.76
2023-05-17T11:35:58.006Z,65.42
2023-05-17T11:36:57.246Z,67.51
2023-05-17T11:37:57.982Z,63.49
2023-05-17T11:39:07.457Z,67.03
2023-05-17T11:39:58.638Z,64.13
2023-05-17T11:40:57.968Z,66.71
2023-05-17T11:41:57.157Z,78.47
2023-05-17T11:42:58.894Z,67.19
2023-05-17T11:43:57.934Z,69.29
2023-05-17T11:44:57.923Z,73.96
2023-05-17T11:45:57.881Z,63.16
2023-05-17T11:46:57.999Z,65.10
2023-05-17T11:47:59.238Z,68.16
2023-05-17T11:48:57.775Z,77.18
2023-05-17T11:49:57.844Z,63.00
2023-05-17T11:50:58.919Z,69.61
2023-05-17T11:51:57.804Z,69.61
2023-05-17T11:52:57.742Z,68.80
2023-05-17T11:53:58.121Z,69.93
2023-05-17T11:54:58.718Z,68.00
2023-05-17T11:55:57.132Z,70.58
2023-05-17T11:56:58.716Z,64.13
2023-05-17T11:57:58.110Z,67.35
2023-05-17T11:58:57.676Z,67.51
2023-05-17T11:59:57.843Z,69.13
2023-05-17T12:00:56.960Z,63.33
2023-05-17T12:01:57.813Z,75.73
2023-05-17T12:02:57.864Z,69.61
2023-05-17T12:03:56.935Z,59.62
2023-05-17T12:04:58.756Z,61.71
2023-05-17T12:05:57.629Z,58.33
2023-05-17T12:06:56.908Z,43.99
2023-05-17T12:07:57.543Z,42.38
2023-05-17T12:08:56.891Z,42.70
2023-05-17T12:09:58.804Z,47.70
2023-05-17T12:10:58.300Z,43.83
2023-05-17T12:11:56.851Z,43.02
2023-05-17T12:12:57.793Z,45.12
2023-05-17T12:13:56.823Z,42.54
2023-05-17T12:14:58.451Z,50.43
2023-05-17T12:15:58.453Z,44.47
2023-05-17T12:16:56.791Z,43.34
2023-05-17T12:17:57.642Z,49.79
2023-05-17T12:18:56.917Z,42.22
2023-05-17T12:19:58.560Z,48.50
2023-05-17T12:20:57.446Z,66.23
2023-05-17T12:21:56.747Z,54.30
2023-05-17T12:22:58.396Z,43.34
2023-05-17T12:23:57.846Z,41.57
2023-05-17T12:24:56.768Z,42.22
2023-05-17T12:25:57.563Z,65.10
2023-05-17T12:26:57.365Z,73.80
2023-05-17T12:27:56.672Z,65.10
2023-05-17T12:28:58.729Z,67.68
2023-05-17T12:29:57.621Z,68.64
2023-05-17T12:30:56.639Z,69.61
2023-05-17T12:31:58.335Z,69.13
2023-05-17T12:32:58.168Z,70.90
2023-05-17T12:33:56.670Z,65.90
2023-05-17T12:34:58.040Z,63.49
2023-05-17T12:35:57.224Z,62.52
2023-05-17T12:36:57.308Z,62.36
2023-05-17T12:37:56.579Z,63.97
2023-05-17T12:38:57.385Z,62.68
2023-05-17T12:39:57.211Z,64.13
2023-05-17T12:40:56.538Z,63.65
2023-05-17T12:41:58.237Z,50.76
2023-05-17T12:42:57.329Z,46.08
2023-05-17T12:44:13.886Z,47.70
2023-05-17T12:44:57.370Z,48.02
2023-05-17T12:45:57.172Z,53.17
2023-05-17T12:46:57.315Z,63.81
2023-05-17T12:47:57.360Z,64.13
2023-05-17T12:48:57.357Z,64.61
2023-05-17T12:49:57.198Z,62.36
2023-05-17T12:50:57.119Z,65.90
2023-05-17T12:51:56.425Z,63.49
2023-05-17T12:52:57.127Z,64.61